Terminal Aerodrome Forecast
Issued by NWS

Home | Current Version | Previous Version | Text Only | Print | Product List | Glossary On
Versions: 1 2 3 4 5 6 7 8 9 10 11 12 13 14 15 16 17 18 19 20 21 22 23 24 25 26 27 28 29 30 31 32 33 34
000
FTUS43 KDMX 220520
TAFOTM
TAF
KOTM 220520Z 2206/2306 16007KT P6SM VCTS SCT035CB SCT090
     FM220900 24008KT 5SM TSRA BR SCT015CB BKN080
      TEMPO 2210/2212 3SM TSRA BR SCT015 BKN035CB
     FM221200 21008KT 5SM BR VCTS SCT020CB BKN060
     FM221300 24005KT P6SM SCT030 BKN080
     FM230000 12005KT P6SM SCT080 BKN150=

USA.gov is the U.S. government's official web portal to all federal, state and local government web resources and services.